Airfield :
LOGIN :

Register | Disclaimer

   EN    FR    IT 

 










Legend :    VFR   Marginal VFR   IFR   Intensive IFR   Very Intensive IFR
Visi :
Ceiling :
>= 8 km
>= 3000ft
5 to 8 km
1000 to 3000 ft
1500m to 5 km
500 to 1000 ft
800 to 1500m
200 to 500 ft
< 800m
< 200 ft
Symbols :   Thunderstorms  Fog  Heavy snow  Heavy precipitations  Wind > 20 kt
SIGMETs :     Misc.  Thunderstorms  Icing  Turbulence  Mountain Waves  Volcanic Ashes







- Airport Elevation : 83 ft
- IATA code : LHR
- Download approach charts


EGLL - London Heathrow

CURRENT METAR :
  • 260120Z AUTO 05007KT 010V070 9999 OVC037 00/M06 Q1030 NOSIG

EXPIRED METARs :
  • 260050Z AUTO 04006KT 9999 OVC039 00/M06 Q1030 NOSIG
  • 260020Z AUTO 05007KT 010V070 9999 BKN039 M00/M06 Q1030
  • 252350Z AUTO 05006KT 9999 BKN039 M00/M06 Q1030 NOSIG
  • 252320Z AUTO 05008KT 9999 BKN035 M00/M06 Q1030 NOSIG
  • 252250Z AUTO 05006KT 9999 SCT034 M00/M06 Q1030

TAF TAF EGLL
Valid from the 26 at 00:00 until the 27 at 06:00 UTC


252254Z 2600/2706 05008KT 9999 FEW030
PROB30
TEMPO 2602/2610 2000 -SHSN BKN010
TEMPO 2610/2624 2000 -SHSN BKN010
PROB30
TEMPO 2610/2618 07015G25KT 1200 SHSN BKN004
PROB30
TEMPO 2700/2706 2000 -SHSN BKN010
No reported NOTAMs for that airfield.



MET'MAP, your aeronautical weather chart ! - Copyright ORBIFLY December 2007 - Disclaimer

ORBIFLY MET'MAP TEAM :

Programming & Development : Alexandra Zaïnal
Concept & Development : Baudouin d'Aumeries
Co-Development & Prog : Marc-Olivier Méhu
Technical & hardware support : Manuel Goepfert

Contact : metmap@orbifly.com




SOURCES & CREDITS :

   NOAA